Time;durP1;ratioP1;P1;durP2;ratioP2;P2;SDS_P1;SDS_P2;PMS_P1;PMS_P2;Temp;Humidity;BMP_temperature;BMP_pressure;BME280_temperature;BME280_humidity;BME280_pressure;Samples;Min_cycle;Max_cycle;Signal;HPM_P1;HPM_P2
2022/05/30 00:00:40;;;;;;;4.63;2.35;;;21.00;52.00;;;;;;5054754;28;20036;-55
2022/05/30 00:03:06;;;;;;;6.57;2.33;;;21.00;52.10;;;;;;5050325;28;20389;-55
2022/05/30 00:05:31;;;;;;;5.97;2.40;;;21.00;52.00;;;;;;5050852;28;20594;-55
2022/05/30 00:07:58;;;;;;;6.35;2.60;;;21.00;52.10;;;;;;5049966;28;20040;-55
2022/05/30 00:10:23;;;;;;;8.32;2.30;;;21.00;52.30;;;;;;5049561;28;20020;-55
2022/05/30 00:12:49;;;;;;;5.97;2.50;;;21.00;52.00;;;;;;5052799;28;20033;-55
2022/05/30 00:15:17;;;;;;;6.55;2.45;;;20.90;52.20;;;;;;5050982;28;20053;-55
2022/05/30 00:17:43;;;;;;;4.82;2.40;;;20.90;52.10;;;;;;5049181;28;20369;-55
2022/05/30 00:20:09;;;;;;;6.32;2.22;;;20.90;52.10;;;;;;5052728;28;20515;-55
2022/05/30 00:22:35;;;;;;;5.07;2.20;;;20.90;52.10;;;;;;5050216;28;20044;-55
2022/05/30 00:25:00;;;;;;;4.32;2.20;;;20.90;51.80;;;;;;5050417;28;20101;-55
2022/05/30 00:27:26;;;;;;;6.55;2.15;;;20.90;52.10;;;;;;5049502;28;21980;-55
2022/05/30 00:29:51;;;;;;;6.03;2.45;;;20.80;52.10;;;;;;5049258;28;20036;-55
2022/05/30 00:32:18;;;;;;;5.55;2.30;;;20.80;52.10;;;;;;5049145;28;20036;-55
2022/05/30 00:34:43;;;;;;;4.47;2.10;;;20.80;52.10;;;;;;5049859;28;20159;-55
2022/05/30 00:37:09;;;;;;;5.20;2.25;;;20.80;51.90;;;;;;5049658;28;20124;-55
2022/05/30 00:39:35;;;;;;;5.35;2.05;;;20.80;51.90;;;;;;5050788;28;20043;-55
2022/05/30 00:42:15;;;;;;;5.18;2.22;;;20.80;51.90;;;;;;5041621;28;20027;-55
2022/05/30 00:44:42;;;;;;;6.63;2.30;;;20.80;52.00;;;;;;5050271;28;20043;-55
2022/05/30 00:47:07;;;;;;;4.97;2.25;;;20.80;51.90;;;;;;5049078;28;20064;-55
2022/05/30 00:49:35;;;;;;;5.38;2.00;;;20.80;52.00;;;;;;5047698;28;21087;-55
2022/05/30 00:52:05;;;;;;;5.30;2.28;;;20.70;51.80;;;;;;5048124;28;20493;-55
2022/05/30 00:54:37;;;;;;;5.45;1.92;;;20.70;52.00;;;;;;5049827;28;20040;-55
2022/05/30 00:57:20;;;;;;;5.10;2.00;;;20.70;51.60;;;;;;5048115;28;20111;-56
2022/05/30 00:59:53;;;;;;;5.82;2.10;;;20.70;51.50;;;;;;5049597;28;20792;-55
2022/05/30 01:02:20;;;;;;;3.88;2.08;;;20.70;51.70;;;;;;5054844;28;20119;-55
2022/05/30 01:07:32;;;;;;;5.07;2.20;;;20.70;52.60;;;;;;5051791;28;20413;-55
2022/05/30 01:09:58;;;;;;;4.97;2.10;;;20.70;51.70;;;;;;5049987;28;20068;-55
2022/05/30 01:12:36;;;;;;;4.90;2.15;;;20.60;51.80;;;;;;5048113;28;20021;-55
2022/05/30 01:15:03;;;;;;;4.80;1.80;;;20.60;51.70;;;;;;5049096;28;20396;-55
2022/05/30 01:17:28;;;;;;;4.72;1.80;;;20.60;51.70;;;;;;5055310;28;20103;-55
2022/05/30 01:20:16;;;;;;;3.55;1.80;;;20.60;51.50;;;;;;5056354;28;20111;-55
2022/05/30 01:23:00;;;;;;;4.50;2.00;;;20.60;51.60;;;;;;5048516;28;20607;-55
2022/05/30 01:25:50;;;;;;;4.60;2.00;;;20.60;51.60;;;;;;5049920;28;20033;-55
2022/05/30 01:28:22;;;;;;;3.63;1.80;;;20.60;51.60;;;;;;5046492;28;20584;-55
2022/05/30 01:30:48;;;;;;;4.55;1.80;;;20.60;51.70;;;;;;5049301;28;20024;-55
2022/05/30 01:33:14;;;;;;;6.13;2.10;;;20.60;51.60;;;;;;5054806;28;20025;-55
2022/05/30 01:35:39;;;;;;;5.50;2.00;;;20.50;51.70;;;;;;5047460;28;20033;-56
2022/05/30 01:38:05;;;;;;;5.25;1.88;;;20.60;51.60;;;;;;5048586;28;20021;-55
2022/05/30 01:40:31;;;;;;;3.30;1.85;;;20.50;51.60;;;;;;5055344;28;20111;-55
2022/05/30 01:42:56;;;;;;;4.97;1.90;;;20.50;51.60;;;;;;5048895;28;20032;-55
2022/05/30 01:45:23;;;;;;;3.45;1.63;;;20.50;51.60;;;;;;5049467;28;20501;-55
2022/05/30 01:47:49;;;;;;;4.82;1.65;;;20.50;51.60;;;;;;5055498;28;20413;-55
2022/05/30 01:50:15;;;;;;;4.30;1.80;;;20.50;51.70;;;;;;5049435;28;20028;-55
2022/05/30 01:52:44;;;;;;;4.60;1.77;;;20.50;51.70;;;;;;5052893;28;20507;-55
2022/05/30 01:55:09;;;;;;;5.22;1.80;;;20.50;51.60;;;;;;5053844;28;20124;-55
2022/05/30 01:57:35;;;;;;;4.75;1.90;;;20.40;51.70;;;;;;5056000;28;20120;-55
2022/05/30 02:00:01;;;;;;;5.75;2.00;;;20.40;51.70;;;;;;5057642;28;20049;-55
2022/05/30 02:02:26;;;;;;;3.65;1.67;;;20.40;51.70;;;;;;5054089;28;20032;-55
2022/05/30 02:04:53;;;;;;;5.80;1.80;;;20.40;51.70;;;;;;5050395;28;20155;-55
2022/05/30 02:07:19;;;;;;;4.45;1.80;;;20.40;51.70;;;;;;5046990;28;20043;-55
2022/05/30 02:09:44;;;;;;;4.57;1.83;;;20.40;51.70;;;;;;5050056;28;20028;-55
2022/05/30 02:12:11;;;;;;;5.80;1.88;;;20.40;51.70;;;;;;5053944;28;20032;-55
2022/05/30 02:14:37;;;;;;;5.57;1.92;;;20.40;51.80;;;;;;5048131;28;20036;-55
2022/05/30 02:17:04;;;;;;;4.60;1.90;;;20.40;51.70;;;;;;5051220;28;20072;-55
2022/05/30 02:19:38;;;;;;;3.70;1.63;;;20.40;51.80;;;;;;5053723;28;20111;-55
2022/05/30 02:22:05;;;;;;;4.07;1.95;;;20.40;51.80;;;;;;5052825;28;20052;-55
2022/05/30 02:24:30;;;;;;;3.85;1.70;;;20.40;51.80;;;;;;5048239;28;20036;-55
2022/05/30 02:26:56;;;;;;;4.53;1.98;;;20.40;51.80;;;;;;5048172;28;20036;-55
2022/05/30 02:29:22;;;;;;;5.22;2.00;;;20.30;51.80;;;;;;5049077;28;20123;-55
2022/05/30 02:31:48;;;;;;;3.28;1.63;;;20.30;51.80;;;;;;5054617;28;20024;-55
2022/05/30 02:36:57;;;;;;;5.38;1.83;;;20.30;51.90;;;;;;5053003;28;20507;-55
2022/05/30 02:39:24;;;;;;;3.75;1.70;;;20.30;51.90;;;;;;5050353;28;20032;-55
2022/05/30 02:41:50;;;;;;;3.65;1.70;;;20.30;52.00;;;;;;5052985;28;20024;-55
2022/05/30 02:44:19;;;;;;;4.47;1.90;;;20.20;51.90;;;;;;5052287;28;20073;-55
2022/05/30 02:46:54;;;;;;;3.63;1.70;;;20.20;51.90;;;;;;5051680;28;20485;-55
2022/05/30 02:49:20;;;;;;;4.82;2.10;;;20.20;51.90;;;;;;5056703;28;20032;-55
2022/05/30 02:51:46;;;;;;;3.53;1.63;;;20.20;53.00;;;;;;5059516;28;20144;-55
2022/05/30 02:54:12;;;;;;;5.72;1.92;;;20.20;52.00;;;;;;5051289;28;20138;-55
2022/05/30 02:56:39;;;;;;;5.05;1.73;;;20.20;52.00;;;;;;5052237;28;20405;-55
2022/05/30 02:59:04;;;;;;;4.88;1.90;;;20.20;52.00;;;;;;5051463;28;20036;-55
2022/05/30 03:01:31;;;;;;;3.92;1.70;;;20.20;52.10;;;;;;5056601;28;20032;-54
2022/05/30 03:03:58;;;;;;;3.60;1.75;;;20.20;52.20;;;;;;5052940;28;20032;-55
2022/05/30 03:06:24;;;;;;;4.25;1.88;;;20.20;52.20;;;;;;5051006;28;20059;-55
2022/05/30 03:08:50;;;;;;;4.53;1.88;;;20.20;52.20;;;;;;5031756;28;20752;-55
2022/05/30 03:11:16;;;;;;;3.83;1.48;;;20.10;52.10;;;;;;5051207;28;20452;-55
2022/05/30 03:13:41;;;;;;;6.15;2.05;;;20.10;52.10;;;;;;5052016;28;20043;-55
2022/05/30 03:16:07;;;;;;;4.38;1.80;;;20.10;52.10;;;;;;5052196;28;20043;-55
2022/05/30 03:18:33;;;;;;;3.28;1.77;;;20.10;52.10;;;;;;5056683;28;20032;-55
2022/05/30 03:20:58;;;;;;;4.00;1.80;;;20.10;52.10;;;;;;5055299;28;20024;-55
2022/05/30 03:23:24;;;;;;;3.92;1.75;;;20.10;52.10;;;;;;5050651;28;20028;-55
2022/05/30 03:25:50;;;;;;;4.65;1.80;;;20.10;52.10;;;;;;5055538;28;20021;-55
2022/05/30 03:28:15;;;;;;;4.63;1.63;;;20.10;53.10;;;;;;5050191;28;20047;-55
2022/05/30 03:30:41;;;;;;;4.15;1.90;;;20.10;52.10;;;;;;5060339;28;20046;-55
2022/05/30 03:33:08;;;;;;;4.38;1.80;;;20.10;52.10;;;;;;5056235;28;20033;-55
2022/05/30 03:35:33;;;;;;;2.53;1.50;;;20.00;52.10;;;;;;5055856;28;20048;-55
2022/05/30 03:38:08;;;;;;;2.50;1.50;;;20.00;52.10;;;;;;5058585;28;20025;-55
2022/05/30 03:40:37;;;;;;;3.15;1.65;;;20.00;52.20;;;;;;5058246;28;20041;-55
2022/05/30 03:43:07;;;;;;;4.03;1.80;;;20.00;52.20;;;;;;5056793;28;20497;-55
2022/05/30 03:45:39;;;;;;;3.95;1.90;;;20.00;52.30;;;;;;5055185;28;20068;-55
2022/05/30 03:48:05;;;;;;;3.05;1.77;;;20.00;52.20;;;;;;5063394;28;20081;-55
2022/05/30 03:50:31;;;;;;;2.85;1.63;;;20.00;52.30;;;;;;5057043;28;20493;-55
2022/05/30 03:52:56;;;;;;;4.57;1.80;;;20.00;52.60;;;;;;5056069;28;20052;-55
2022/05/30 03:55:22;;;;;;;3.03;1.70;;;20.00;52.80;;;;;;5051981;28;20033;-55
2022/05/30 03:57:48;;;;;;;3.72;1.73;;;20.00;52.70;;;;;;5049582;28;20082;-55
2022/05/30 04:00:18;;;;;;;4.13;1.60;;;20.00;52.70;;;;;;5050020;28;20024;-55
2022/05/30 04:02:47;;;;;;;3.85;1.60;;;20.00;52.60;;;;;;5050827;28;20029;-55
2022/05/30 04:05:13;;;;;;;3.15;1.52;;;20.00;52.70;;;;;;5063321;28;20032;-55
2022/05/30 04:07:39;;;;;;;4.72;2.05;;;19.90;52.60;;;;;;5061448;28;20391;-55
2022/05/30 04:10:06;;;;;;;4.25;1.75;;;19.90;53.70;;;;;;5059495;28;20034;-55
2022/05/30 04:12:31;;;;;;;3.08;1.60;;;20.00;52.60;;;;;;5059480;28;20024;-55
2022/05/30 04:14:58;;;;;;;4.95;1.70;;;19.90;52.70;;;;;;5062144;28;20036;-55
2022/05/30 04:17:24;;;;;;;4.38;1.92;;;19.90;52.90;;;;;;5059480;28;20032;-55
2022/05/30 04:19:50;;;;;;;3.70;1.40;;;19.90;52.80;;;;;;5057798;28;20025;-55
2022/05/30 04:22:15;;;;;;;3.13;1.65;;;19.90;52.70;;;;;;5054657;28;20048;-56
2022/05/30 04:24:41;;;;;;;6.57;1.75;;;19.90;52.90;;;;;;5058276;28;20106;-56
2022/05/30 04:27:07;;;;;;;4.45;1.70;;;19.90;52.80;;;;;;5055816;28;20029;-56
2022/05/30 04:29:33;;;;;;;4.93;2.00;;;19.90;53.00;;;;;;5057994;28;20044;-55
2022/05/30 04:32:02;;;;;;;4.47;1.90;;;19.90;53.00;;;;;;5065306;28;20457;-55
2022/05/30 04:34:28;;;;;;;5.07;1.75;;;19.90;53.10;;;;;;5054494;28;20054;-56
2022/05/30 04:36:54;;;;;;;4.97;1.90;;;19.80;53.00;;;;;;5062574;28;20024;-56
2022/05/30 04:39:19;;;;;;;2.88;1.50;;;19.80;53.00;;;;;;5060946;28;20115;-56
2022/05/30 04:41:45;;;;;;;4.80;1.60;;;19.80;53.10;;;;;;5061394;28;20020;-55
2022/05/30 04:44:10;;;;;;;4.85;1.80;;;19.80;53.10;;;;;;5054916;28;20036;-55
2022/05/30 04:46:36;;;;;;;4.07;1.90;;;19.80;53.20;;;;;;5053935;28;20437;-56
2022/05/30 04:49:02;;;;;;;4.15;1.73;;;19.80;53.00;;;;;;5056865;28;20505;-55
2022/05/30 04:51:27;;;;;;;2.50;1.60;;;19.80;53.20;;;;;;5059601;28;20021;-55
2022/05/30 04:53:53;;;;;;;3.05;1.70;;;19.80;53.20;;;;;;5054701;28;20032;-56
2022/05/30 04:56:19;;;;;;;3.38;1.60;;;19.80;53.20;;;;;;5053507;28;20024;-56
2022/05/30 04:58:49;;;;;;;3.45;1.50;;;19.80;53.20;;;;;;5060215;28;20035;-55
2022/05/30 05:01:14;;;;;;;8.52;1.60;;;19.80;53.30;;;;;;5058842;28;20029;-54
2022/05/30 05:03:40;;;;;;;4.30;1.65;;;19.80;52.90;;;;;;5060833;28;20047;-53
2022/05/30 05:06:07;;;;;;;3.83;1.80;;;19.80;53.00;;;;;;5060622;28;20090;-54
2022/05/30 05:08:58;;;;;;;6.60;1.83;;;19.80;53.20;;;;;;5056929;28;20147;-54
2022/05/30 05:11:25;;;;;;;4.25;1.80;;;19.80;53.30;;;;;;5057824;28;20121;-54
2022/05/30 05:13:51;;;;;;;5.20;1.85;;;19.70;53.60;;;;;;5062817;28;20063;-54
2022/05/30 05:16:18;;;;;;;6.97;2.10;;;19.80;53.80;;;;;;5054570;28;20037;-53
2022/05/30 05:18:44;;;;;;;8.32;2.38;;;19.80;54.70;;;;;;5064591;28;20024;-54
2022/05/30 05:21:21;;;;;;;8.45;2.40;;;19.80;55.10;;;;;;5056845;28;20044;-57
2022/05/30 05:23:46;;;;;;;9.65;2.22;;;19.90;55.40;;;;;;5058586;28;20025;-57
2022/05/30 05:26:12;;;;;;;12.73;2.38;;;19.80;55.20;;;;;;5061664;28;20819;-57
2022/05/30 05:28:38;;;;;;;8.38;2.17;;;19.90;55.20;;;;;;5050587;28;20124;-57
2022/05/30 05:31:05;;;;;;;8.32;2.10;;;19.90;55.00;;;;;;5051079;28;20031;-57
2022/05/30 05:33:31;;;;;;;6.55;2.00;;;19.90;54.90;;;;;;5062731;28;20429;-57
2022/05/30 05:35:57;;;;;;;7.28;2.35;;;19.90;55.00;;;;;;5060708;28;20125;-57
2022/05/30 05:38:22;;;;;;;7.70;2.40;;;19.80;54.90;;;;;;5053186;28;20063;-57
2022/05/30 05:40:48;;;;;;;7.10;2.20;;;19.80;55.20;;;;;;5061518;28;20378;-57
2022/05/30 05:43:14;;;;;;;7.30;2.17;;;19.80;55.00;;;;;;5057553;28;20037;-57
2022/05/30 05:45:41;;;;;;;8.30;2.33;;;19.80;55.00;;;;;;5054976;28;20599;-57
2022/05/30 05:48:08;;;;;;;7.57;2.25;;;19.80;54.90;;;;;;5056429;28;20132;-57
2022/05/30 05:50:33;;;;;;;9.38;2.30;;;19.80;54.90;;;;;;5056100;28;20028;-57
2022/05/30 05:52:59;;;;;;;9.63;2.33;;;19.80;54.80;;;;;;5050978;28;20033;-57
2022/05/30 05:55:26;;;;;;;6.70;2.22;;;19.80;54.90;;;;;;5055157;28;20021;-57
2022/05/30 05:57:51;;;;;;;6.70;2.30;;;19.70;54.80;;;;;;5049963;28;20551;-57
2022/05/30 06:00:17;;;;;;;11.68;2.78;;;19.80;54.80;;;;;;5058716;28;20029;-57
2022/05/30 06:02:43;;;;;;;9.07;2.50;;;19.70;54.80;;;;;;5062886;28;20035;-57
2022/05/30 06:05:09;;;;;;;8.25;2.60;;;19.80;54.80;;;;;;5059829;28;20024;-57
2022/05/30 06:07:38;;;;;;;7.72;2.38;;;19.80;54.80;;;;;;5062460;28;20824;-56
2022/05/30 06:10:04;;;;;;;8.13;2.38;;;19.80;54.80;;;;;;5065307;28;20021;-57
2022/05/30 06:12:30;;;;;;;8.32;2.28;;;19.80;54.80;;;;;;5070379;28;20025;-57
2022/05/30 06:14:56;;;;;;;9.07;2.30;;;19.80;54.80;;;;;;5080338;28;20035;-57
2022/05/30 06:17:21;;;;;;;8.95;2.25;;;19.80;54.70;;;;;;5063835;28;20044;-57
2022/05/30 06:19:47;;;;;;;6.97;2.15;;;19.80;54.70;;;;;;5062037;28;20123;-57
2022/05/30 06:22:13;;;;;;;6.78;2.10;;;19.80;54.70;;;;;;5066646;28;20478;-57
2022/05/30 06:24:39;;;;;;;9.23;2.08;;;19.80;54.70;;;;;;5058211;28;20074;-57
2022/05/30 06:27:06;;;;;;;8.98;2.20;;;19.80;54.70;;;;;;5062911;28;20052;-57
2022/05/30 06:29:32;;;;;;;9.80;2.25;;;19.80;54.70;;;;;;5056464;28;20025;-57
2022/05/30 06:31:58;;;;;;;8.95;2.10;;;19.80;54.70;;;;;;5059993;28;20078;-57
2022/05/30 06:34:23;;;;;;;6.82;2.00;;;19.80;54.70;;;;;;5060637;28;20122;-57
2022/05/30 06:36:49;;;;;;;6.97;2.05;;;19.80;54.70;;;;;;5066456;28;20021;-57
2022/05/30 06:39:17;;;;;;;7.45;2.17;;;19.80;54.70;;;;;;5065845;28;20108;-57
2022/05/30 06:41:42;;;;;;;9.88;2.25;;;19.80;54.80;;;;;;5068593;28;20031;-57
2022/05/30 06:44:08;;;;;;;6.60;1.85;;;19.80;54.80;;;;;;5061096;28;20543;-57
2022/05/30 06:46:34;;;;;;;9.50;2.03;;;19.80;54.80;;;;;;5068192;28;20048;-57
2022/05/30 06:49:01;;;;;;;7.97;2.08;;;19.80;54.90;;;;;;5063011;28;20732;-57
2022/05/30 06:51:28;;;;;;;6.25;2.10;;;19.80;54.90;;;;;;5065868;28;20397;-57
2022/05/30 06:53:53;;;;;;;8.90;2.30;;;19.80;54.80;;;;;;5068030;28;20090;-57
2022/05/30 06:56:22;;;;;;;6.93;2.22;;;19.80;54.90;;;;;;5059608;28;20028;-57
2022/05/30 06:58:50;;;;;;;5.35;2.00;;;19.80;54.90;;;;;;5060702;28;20417;-57
2022/05/30 07:01:16;;;;;;;9.38;2.03;;;19.80;54.90;;;;;;5063760;28;20452;-57
2022/05/30 07:03:44;;;;;;;7.05;2.33;;;19.80;55.00;;;;;;5065454;28;20033;-57
2022/05/30 07:06:10;;;;;;;6.68;2.25;;;19.80;55.10;;;;;;5064833;28;20044;-57
2022/05/30 07:08:37;;;;;;;11.13;2.20;;;19.80;55.00;;;;;;5062097;28;20119;-57
2022/05/30 07:11:02;;;;;;;7.97;2.28;;;19.80;55.00;;;;;;5061956;28;20024;-57
2022/05/30 07:13:29;;;;;;;7.85;2.30;;;19.80;55.10;;;;;;5057874;28;20082;-57
2022/05/30 07:15:55;;;;;;;7.80;2.20;;;19.80;55.20;;;;;;5052271;28;20040;-57
2022/05/30 07:18:20;;;;;;;8.95;2.25;;;19.80;55.10;;;;;;5066519;28;20032;-57
2022/05/30 07:20:46;;;;;;;6.22;2.10;;;19.80;55.20;;;;;;5064725;28;20490;-57
2022/05/30 07:23:13;;;;;;;8.10;2.03;;;19.80;55.20;;;;;;5063763;28;20036;-57
2022/05/30 07:25:39;;;;;;;7.30;2.28;;;19.80;55.30;;;;;;5059489;28;20025;-57
2022/05/30 07:28:05;;;;;;;8.32;2.53;;;19.80;55.30;;;;;;5059419;28;20409;-57
2022/05/30 07:30:30;;;;;;;5.40;2.00;;;19.80;55.30;;;;;;5059918;28;20115;-57
2022/05/30 07:32:56;;;;;;;7.40;2.10;;;19.80;55.40;;;;;;5064113;28;20468;-57
2022/05/30 07:35:22;;;;;;;8.98;2.30;;;19.80;55.30;;;;;;5063200;28;20109;-57
2022/05/30 07:37:49;;;;;;;5.90;2.20;;;19.80;55.30;;;;;;5058364;28;20013;-57
2022/05/30 07:40:15;;;;;;;5.68;2.10;;;19.80;55.40;;;;;;5060541;28;20421;-57
2022/05/30 07:42:41;;;;;;;4.68;1.92;;;19.90;55.40;;;;;;5056093;28;20027;-57
2022/05/30 07:45:10;;;;;;;9.15;2.10;;;19.80;55.30;;;;;;5057733;28;20040;-57
2022/05/30 07:47:36;;;;;;;7.32;2.45;;;19.90;55.30;;;;;;5061465;28;20032;-57
2022/05/30 07:50:04;;;;;;;6.68;1.92;;;19.90;55.30;;;;;;5054643;28;20502;-57
2022/05/30 07:52:30;;;;;;;8.65;2.40;;;19.90;55.30;;;;;;5057398;28;20409;-57
2022/05/30 07:54:56;;;;;;;7.22;2.13;;;19.90;55.40;;;;;;5062645;28;20395;-57
2022/05/30 07:57:50;;;;;;;5.20;2.10;;;19.90;55.20;;;;;;5063171;28;20029;-57
2022/05/30 08:00:08;;;;;;;5.65;2.10;;;19.90;55.20;;;;;;5057430;28;20041;-57
2022/05/30 08:02:34;;;;;;;6.85;2.40;;;19.90;55.20;;;;;;5064134;28;20563;-57
2022/05/30 08:04:59;;;;;;;6.03;2.28;;;19.90;55.20;;;;;;5065176;28;20028;-57
2022/05/30 08:07:25;;;;;;;6.22;2.15;;;19.90;55.20;;;;;;5061215;28;20029;-57
2022/05/30 08:09:51;;;;;;;6.03;2.15;;;20.00;55.30;;;;;;5062591;28;20500;-57
2022/05/30 08:12:17;;;;;;;5.63;2.00;;;19.90;55.20;;;;;;5065591;28;20123;-57
2022/05/30 08:14:42;;;;;;;4.97;2.13;;;19.90;55.30;;;;;;5061466;28;20028;-57
2022/05/30 08:17:08;;;;;;;4.32;1.90;;;20.00;55.30;;;;;;5062378;28;20031;-57
2022/05/30 08:19:33;;;;;;;5.50;2.22;;;20.00;55.30;;;;;;5054386;28;20091;-57
2022/05/30 08:22:06;;;;;;;8.40;2.20;;;20.00;55.30;;;;;;5061008;28;20525;-57
2022/05/30 08:24:39;;;;;;;4.15;1.77;;;20.00;55.30;;;;;;5064653;28;20031;-57
2022/05/30 08:27:05;;;;;;;5.35;2.50;;;20.00;55.30;;;;;;5075707;28;20017;-57
2022/05/30 08:29:30;;;;;;;4.93;2.20;;;20.00;55.30;;;;;;5062440;28;20639;-57
2022/05/30 08:31:56;;;;;;;7.95;2.30;;;20.00;55.30;;;;;;5059131;28;20103;-56
2022/05/30 08:34:22;;;;;;;5.78;2.00;;;20.00;55.20;;;;;;5053648;28;20025;-57
2022/05/30 08:36:47;;;;;;;5.50;2.35;;;20.00;55.20;;;;;;5065469;28;20021;-57
2022/05/30 08:42:00;;;;;;;4.03;1.98;;;20.00;55.30;;;;;;5056828;28;20106;-57
2022/05/30 08:44:30;;;;;;;3.90;2.05;;;20.00;55.20;;;;;;5063516;28;20047;-57
2022/05/30 08:47:02;;;;;;;5.50;1.80;;;20.10;55.20;;;;;;5059362;28;20052;-57
2022/05/30 08:49:52;;;;;;;5.97;1.70;;;20.10;55.20;;;;;;5055626;28;20035;-57
2022/05/30 08:52:25;;;;;;;3.83;2.08;;;20.10;55.20;;;;;;5063717;28;20482;-58
2022/05/30 08:54:59;;;;;;;4.50;1.90;;;20.10;55.20;;;;;;5056606;28;20070;-57
2022/05/30 08:57:30;;;;;;;4.18;1.70;;;20.10;55.20;;;;;;5067190;28;20041;-57
2022/05/30 09:00:05;;;;;;;4.38;1.88;;;20.20;55.10;;;;;;5071274;28;20559;-57
2022/05/30 09:03:00;;;;;;;9.18;2.20;;;20.20;55.00;;;;;;5080999;28;20055;-57
2022/05/30 09:05:32;;;;;;;5.63;2.13;;;20.20;55.10;;;;;;5057827;28;20028;-58
2022/05/30 09:08:01;;;;;;;5.90;1.92;;;20.20;55.00;;;;;;5060571;28;20512;-58
2022/05/30 09:10:33;;;;;;;6.82;2.03;;;20.20;55.00;;;;;;5062959;28;20013;-57
2022/05/30 09:13:07;;;;;;;5.20;2.08;;;20.20;55.00;;;;;;5053155;28;20032;-57
2022/05/30 09:15:44;;;;;;;6.72;1.90;;;20.30;55.00;;;;;;5056564;28;20060;-57
2022/05/30 09:18:48;;;;;;;4.45;2.05;;;20.30;55.00;;;;;;5061525;28;20095;-57
2022/05/30 09:21:14;;;;;;;4.70;2.00;;;20.30;54.90;;;;;;5058402;28;20041;-57
2022/05/30 09:23:40;;;;;;;6.40;1.98;;;20.30;54.90;;;;;;5061283;28;20028;-58
2022/05/30 09:26:07;;;;;;;5.53;1.83;;;20.40;54.90;;;;;;5061073;28;20027;-58
2022/05/30 09:28:39;;;;;;;3.58;1.92;;;20.40;54.90;;;;;;5051449;28;20040;-57
2022/05/30 09:31:10;;;;;;;4.07;2.00;;;20.40;54.70;;;;;;5062310;28;20385;-57
2022/05/30 09:33:38;;;;;;;6.43;2.10;;;20.40;54.70;;;;;;5062680;28;20029;-57
2022/05/30 09:36:22;;;;;;;5.40;1.83;;;20.40;54.70;;;;;;5059823;28;20052;-57
2022/05/30 09:38:55;;;;;;;6.43;2.17;;;20.40;54.80;;;;;;5059697;28;20077;-57
2022/05/30 09:41:23;;;;;;;4.88;1.90;;;20.40;54.90;;;;;;5060412;28;20414;-57
2022/05/30 09:43:58;;;;;;;5.65;2.08;;;20.40;54.80;;;;;;5060742;28;20033;-57
2022/05/30 09:46:38;;;;;;;5.38;2.00;;;20.40;54.70;;;;;;5063449;28;20032;-58
2022/05/30 09:49:10;;;;;;;3.25;1.90;;;20.40;54.70;;;;;;5054600;28;20300;-57
2022/05/30 09:51:42;;;;;;;5.80;2.03;;;20.50;54.70;;;;;;5056667;28;20028;-57
2022/05/30 09:54:13;;;;;;;5.38;1.98;;;20.50;54.70;;;;;;5064689;28;20035;-57
2022/05/30 09:56:41;;;;;;;4.38;1.80;;;20.50;54.60;;;;;;5059954;28;20162;-57
2022/05/30 09:59:37;;;;;;;6.00;1.83;;;20.50;54.60;;;;;;5061351;28;20032;-57
2022/05/30 10:02:05;;;;;;;5.50;1.85;;;20.50;54.70;;;;;;5058356;28;20415;-57
2022/05/30 10:04:33;;;;;;;4.95;1.80;;;20.50;54.60;;;;;;5048775;28;20111;-57
2022/05/30 10:07:28;;;;;;;4.50;1.73;;;20.60;54.70;;;;;;5057723;28;20029;-57
2022/05/30 10:09:58;;;;;;;3.67;2.00;;;20.60;54.70;;;;;;5056675;28;20049;-57
2022/05/30 10:12:29;;;;;;;4.45;1.80;;;20.60;54.60;;;;;;5065522;28;20033;-57
2022/05/30 10:14:54;;;;;;;5.43;1.90;;;20.60;54.60;;;;;;5063617;28;20037;-57
2022/05/30 10:17:38;;;;;;;5.60;2.00;;;20.60;54.50;;;;;;5060644;28;20524;-57
2022/05/30 10:20:13;;;;;;;3.42;1.70;;;20.60;54.50;;;;;;5061564;28;20035;-58
2022/05/30 10:28:51;;;;;;;3.90;1.70;;;20.70;54.40;;;;;;5058866;28;20094;-58
2022/05/30 10:31:35;;;;;;;4.43;1.60;;;20.70;55.50;;;;;;5062529;28;20025;-58
2022/05/30 10:34:00;;;;;;;3.90;1.63;;;20.70;54.40;;;;;;5053852;28;20029;-58
2022/05/30 10:36:38;;;;;;;3.85;1.80;;;20.70;54.30;;;;;;5068505;28;20389;-58
2022/05/30 10:39:27;;;;;;;4.88;1.70;;;20.80;54.40;;;;;;5057535;28;20025;-57
2022/05/30 10:41:59;;;;;;;4.55;1.90;;;20.70;54.30;;;;;;5061062;28;20068;-57
2022/05/30 10:44:35;;;;;;;4.82;1.77;;;20.80;54.40;;;;;;5073160;28;20508;-58
2022/05/30 10:47:12;;;;;;;2.40;1.42;;;20.80;54.30;;;;;;5065620;28;20082;-58
2022/05/30 10:49:39;;;;;;;3.95;1.77;;;20.80;54.30;;;;;;5049771;28;20044;-58
2022/05/30 10:52:23;;;;;;;5.38;1.77;;;20.90;55.40;;;;;;5068941;28;20025;-58
2022/05/30 10:54:54;;;;;;;5.10;1.73;;;20.90;54.30;;;;;;5062924;28;20367;-57
2022/05/30 10:57:22;;;;;;;3.00;1.58;;;20.90;54.30;;;;;;5058328;28;20060;-58
2022/05/30 10:59:49;;;;;;;4.47;1.80;;;20.90;54.20;;;;;;5066363;28;20017;-57
2022/05/30 11:02:27;;;;;;;4.63;1.80;;;20.90;54.20;;;;;;5062766;28;20027;-57
2022/05/30 11:04:58;;;;;;;3.85;1.50;;;20.90;54.20;;;;;;5074165;28;20313;-58
2022/05/30 11:07:36;;;;;;;3.80;1.92;;;20.90;54.20;;;;;;5066855;28;20047;-57
2022/05/30 11:10:27;;;;;;;5.90;2.00;;;20.90;54.20;;;;;;5072636;28;20032;-58
2022/05/30 11:13:18;;;;;;;3.83;1.70;;;21.00;54.10;;;;;;5064748;28;20484;-57
2022/05/30 11:15:51;;;;;;;4.07;1.80;;;21.00;54.10;;;;;;5067256;28;20029;-57
2022/05/30 11:18:44;;;;;;;3.30;1.73;;;21.00;54.10;;;;;;5051686;28;20033;-58
2022/05/30 11:21:30;;;;;;;4.28;1.80;;;21.00;53.90;;;;;;5072838;28;20043;-57
2022/05/30 11:23:56;;;;;;;3.20;1.63;;;21.10;54.00;;;;;;5074013;28;20094;-58
2022/05/30 11:26:59;;;;;;;4.00;1.70;;;21.10;54.00;;;;;;5061685;28;20032;-58
2022/05/30 11:29:55;;;;;;;2.88;1.70;;;21.10;53.90;;;;;;5062154;28;20036;-58
2022/05/30 11:33:08;;;;;;;5.18;1.88;;;21.10;54.00;;;;;;5067421;28;20032;-57
2022/05/30 11:35:33;;;;;;;5.72;1.75;;;21.10;54.00;;;;;;5020740;28;20604;-58
2022/05/30 11:38:29;;;;;;;5.47;1.75;;;21.10;53.90;;;;;;5023346;28;20022;-58
2022/05/30 11:41:27;;;;;;;5.47;1.83;;;21.10;53.90;;;;;;5024009;28;20087;-58
2022/05/30 11:44:24;;;;;;;4.63;1.80;;;21.10;53.90;;;;;;5021986;28;20706;-58
2022/05/30 11:46:52;;;;;;;4.32;1.85;;;21.10;54.00;;;;;;5001405;28;20038;-58
2022/05/30 11:49:38;;;;;;;3.42;1.48;;;21.10;54.00;;;;;;5021622;28;20042;-58
2022/05/30 11:52:15;;;;;;;6.05;1.70;;;21.10;54.00;;;;;;5022800;28;20050;-58
2022/05/30 11:55:07;;;;;;;3.17;1.50;;;21.20;53.90;;;;;;5021287;28;20033;-58
2022/05/30 11:58:02;;;;;;;4.55;1.80;;;21.20;53.80;;;;;;5018085;28;20060;-58
2022/05/30 12:00:41;;;;;;;4.05;1.80;;;21.20;53.80;;;;;;4962360;28;20777;-57
2022/05/30 12:03:34;;;;;;;5.88;1.70;;;21.20;53.80;;;;;;4957432;28;20043;-58
2022/05/30 12:06:18;;;;;;;4.10;1.70;;;21.20;53.90;;;;;;4958405;28;20496;-58
2022/05/30 12:09:06;;;;;;;4.13;1.58;;;21.20;53.80;;;;;;4951657;28;20507;-58
2022/05/30 12:11:43;;;;;;;3.28;1.65;;;21.30;54.00;;;;;;4971717;28;20038;-58
2022/05/30 12:14:33;;;;;;;5.10;1.70;;;21.30;53.80;;;;;;5001746;28;20034;-58
2022/05/30 12:17:01;;;;;;;3.55;1.50;;;21.30;53.70;;;;;;5005545;28;20053;-57
2022/05/30 12:25:36;;;;;;;2.55;1.50;;;21.40;53.60;;;;;;4924102;29;20102;-58
2022/05/30 12:28:02;;;;;;;;;;;21.40;53.50;;;;;;4919142;29;20582;-58
2022/05/30 12:30:34;;;;;;;5.05;1.73;;;21.40;53.50;;;;;;4928264;29;19911;-58
2022/05/30 12:33:00;;;;;;;4.43;1.85;;;21.40;53.40;;;;;;4929257;29;20036;-57
2022/05/30 12:35:28;;;;;;;4.53;1.77;;;21.50;53.50;;;;;;4929422;29;20042;-58
2022/05/30 12:38:11;;;;;;;5.35;1.65;;;21.50;53.50;;;;;;4983518;28;20077;-57
2022/05/30 12:40:39;;;;;;;3.58;1.80;;;21.50;53.40;;;;;;4999461;28;20126;-58
2022/05/30 12:43:27;;;;;;;3.38;1.50;;;21.50;53.40;;;;;;4982243;28;20041;-58
2022/05/30 12:45:55;;;;;;;2.95;1.60;;;21.50;53.50;;;;;;4993107;28;20044;-57
2022/05/30 12:48:33;;;;;;;5.95;1.80;;;21.50;53.50;;;;;;5005489;28;20058;-58
2022/05/30 12:51:19;;;;;;;3.70;1.85;;;21.60;53.50;;;;;;5000862;28;20065;-57
2022/05/30 12:53:59;;;;;;;3.70;1.70;;;21.50;53.40;;;;;;5004262;28;20041;-57
2022/05/30 12:56:37;;;;;;;3.85;1.60;;;21.50;53.40;;;;;;5006635;28;20049;-57
2022/05/30 12:59:03;;;;;;;3.55;1.45;;;21.60;53.40;;;;;;4999858;28;20023;-58
2022/05/30 13:01:52;;;;;;;4.32;1.70;;;21.60;53.40;;;;;;5014515;28;20527;-57
2022/05/30 13:04:29;;;;;;;4.32;1.67;;;21.50;53.40;;;;;;5052895;28;20022;-58
2022/05/30 13:06:57;;;;;;;3.30;1.77;;;21.50;53.40;;;;;;5062235;28;20033;-58
2022/05/30 13:09:35;;;;;;;3.95;1.77;;;21.60;53.40;;;;;;5062082;28;20064;-58
2022/05/30 13:12:10;;;;;;;3.97;1.55;;;21.60;53.30;;;;;;5062290;28;20020;-57
2022/05/30 13:14:55;;;;;;;3.47;1.70;;;21.70;53.20;;;;;;5056384;28;20264;-57
2022/05/30 13:17:23;;;;;;;3.67;1.58;;;21.70;53.30;;;;;;5075607;28;20025;-58
2022/05/30 13:19:50;;;;;;;5.25;1.80;;;21.70;53.00;;;;;;5053083;28;20040;-58
2022/05/30 13:22:18;;;;;;;4.55;1.50;;;21.70;53.00;;;;;;5054631;28;20029;-58
2022/05/30 13:24:44;;;;;;;4.65;1.70;;;21.70;53.00;;;;;;5066998;28;20478;-57